Главная страница
METAR-TAF:

METAR-TAF

Аэропорты :

Екатеринбург, Россия

Кольцово

широта: 56-50N, долгота: 060-38E, высота над уровнем моря: 237 м

Текущие метеонаблюдения

Эта сводка был подготовлена 30 минут назад, в 05:30 UTC
Ветер 8 Узел от восточно-юго-восточный
Температура -25°C
Влажность 63%
Давление 1047 hPa
Видимость 10 км и более
Нет облачности ниже 1500 м, и нет кучево-дождевой облачности

METAR: USSS 240530Z 12004MPS CAVOK M25/M30 Q1047 R08L/450145 NOSIG RMK QFE765/1020

Время: 11:00 (06:00 UTC)

Прогноз

Эта сводка был подготовлена 1 час и 1 минут назад, в 04:59 UTC
Прогноз действительный с 24-го 06 UTC до 25-го 06 UTC
Ветер 10 Узел от восточно-юго-восточный
Видимость 10 км и более
Отдельные облака на высоте 2000 фута, Кучево-дождевые.
временами
С 24-го 06 UTC до 24-го 18 UTC
Ветер 17 Узел от юго-восточный
Видимость: 3100 м
небольшие ливневые снегопады

TAF: USSS 240459Z 2406/2506 12005MPS 9999 SCT020CB TEMPO 2406/2418 13009MPS 3100 -SHSN

Метеонаблюдения и прогнозы для более 4000 аэропортов (сводки METAR и TAF).

Имеющиеся станции представлены на карте желтыми и красными точками.

Чтобы увидеть название станции, наведите на нее мышь.

Затем щелкните, чтобы увидеть метеонаблюдения и метеопрогнозы.

Управление картой: чтобы увеличить масштаб, щелкните зеленые кнопки с черным крестиком; чтобы уменьшить масштаб, щелкните зеленую кнопку с тире; для просмотра соседних карт щелкайте зеленые стрелки.


METAR-TAF: